sensor_id;sensor_type;location;lat;lon;timestamp;P1;durP1;ratioP1;P2;durP2;ratioP2
7707;SDS011;3896;48.758;8.888;2024-03-02T00:00:08;7.63;;;6.40;;
7707;SDS011;3896;48.758;8.888;2024-03-02T00:02:44;10.27;;;6.97;;
7707;SDS011;3896;48.758;8.888;2024-03-02T00:05:14;11.93;;;6.80;;
7707;SDS011;3896;48.758;8.888;2024-03-02T00:07:41;9.17;;;5.77;;
7707;SDS011;3896;48.758;8.888;2024-03-02T00:10:08;7.83;;;6.20;;
7707;SDS011;3896;48.758;8.888;2024-03-02T00:12:38;9.97;;;6.20;;
7707;SDS011;3896;48.758;8.888;2024-03-02T00:15:05;13.87;;;6.70;;
7707;SDS011;3896;48.758;8.888;2024-03-02T00:17:48;8.80;;;5.70;;
7707;SDS011;3896;48.758;8.888;2024-03-02T00:20:18;11.73;;;6.90;;
7707;SDS011;3896;48.758;8.888;2024-03-02T00:22:47;9.90;;;6.30;;
7707;SDS011;3896;48.758;8.888;2024-03-02T00:25:12;9.10;;;6.47;;
7707;SDS011;3896;48.758;8.888;2024-03-02T00:27:38;12.97;;;7.20;;
7707;SDS011;3896;48.758;8.888;2024-03-02T00:30:32;9.73;;;6.13;;
7707;SDS011;3896;48.758;8.888;2024-03-02T00:33:20;9.70;;;6.23;;
7707;SDS011;3896;48.758;8.888;2024-03-02T00:35:46;11.27;;;6.70;;
7707;SDS011;3896;48.758;8.888;2024-03-02T00:38:12;11.23;;;7.07;;
7707;SDS011;3896;48.758;8.888;2024-03-02T00:40:40;12.20;;;6.87;;
7707;SDS011;3896;48.758;8.888;2024-03-02T00:43:07;9.27;;;7.10;;
7707;SDS011;3896;48.758;8.888;2024-03-02T00:45:48;10.97;;;7.10;;
7707;SDS011;3896;48.758;8.888;2024-03-02T00:48:15;11.60;;;7.57;;
7707;SDS011;3896;48.758;8.888;2024-03-02T00:50:41;10.47;;;6.87;;
7707;SDS011;3896;48.758;8.888;2024-03-02T00:53:09;9.97;;;7.23;;
7707;SDS011;3896;48.758;8.888;2024-03-02T00:55:36;10.83;;;6.67;;
7707;SDS011;3896;48.758;8.888;2024-03-02T00:58:03;10.10;;;7.03;;
7707;SDS011;3896;48.758;8.888;2024-03-02T01:00:28;12.40;;;7.80;;
7707;SDS011;3896;48.758;8.888;2024-03-02T01:02:54;9.10;;;6.90;;
7707;SDS011;3896;48.758;8.888;2024-03-02T01:05:19;10.40;;;6.60;;
7707;SDS011;3896;48.758;8.888;2024-03-02T01:07:45;9.57;;;6.93;;
7707;SDS011;3896;48.758;8.888;2024-03-02T01:10:11;8.53;;;6.17;;
7707;SDS011;3896;48.758;8.888;2024-03-02T01:12:37;10.23;;;7.33;;
7707;SDS011;3896;48.758;8.888;2024-03-02T01:15:03;9.07;;;6.53;;
7707;SDS011;3896;48.758;8.888;2024-03-02T01:17:30;9.63;;;6.47;;
7707;SDS011;3896;48.758;8.888;2024-03-02T01:19:56;8.63;;;6.37;;
7707;SDS011;3896;48.758;8.888;2024-03-02T01:22:22;7.93;;;5.73;;
7707;SDS011;3896;48.758;8.888;2024-03-02T01:24:50;12.50;;;7.03;;
7707;SDS011;3896;48.758;8.888;2024-03-02T01:27:16;8.60;;;6.70;;
7707;SDS011;3896;48.758;8.888;2024-03-02T01:29:41;11.50;;;7.33;;
7707;SDS011;3896;48.758;8.888;2024-03-02T01:32:07;8.60;;;6.80;;
7707;SDS011;3896;48.758;8.888;2024-03-02T01:34:32;10.73;;;6.20;;
7707;SDS011;3896;48.758;8.888;2024-03-02T01:36:58;11.53;;;7.23;;
7707;SDS011;3896;48.758;8.888;2024-03-02T01:39:23;8.80;;;6.70;;
7707;SDS011;3896;48.758;8.888;2024-03-02T01:41:49;9.43;;;6.10;;
7707;SDS011;3896;48.758;8.888;2024-03-02T01:44:14;9.13;;;6.47;;
7707;SDS011;3896;48.758;8.888;2024-03-02T01:46:40;11.43;;;6.37;;
7707;SDS011;3896;48.758;8.888;2024-03-02T01:49:06;8.70;;;6.30;;
7707;SDS011;3896;48.758;8.888;2024-03-02T01:51:31;9.00;;;5.90;;
7707;SDS011;3896;48.758;8.888;2024-03-02T01:53:57;10.77;;;6.30;;
7707;SDS011;3896;48.758;8.888;2024-03-02T01:56:24;9.47;;;6.63;;
7707;SDS011;3896;48.758;8.888;2024-03-02T01:58:49;9.00;;;6.70;;
7707;SDS011;3896;48.758;8.888;2024-03-02T02:01:15;10.07;;;6.37;;
7707;SDS011;3896;48.758;8.888;2024-03-02T02:03:41;9.93;;;6.53;;
7707;SDS011;3896;48.758;8.888;2024-03-02T02:06:08;11.03;;;6.33;;
7707;SDS011;3896;48.758;8.888;2024-03-02T02:08:34;9.33;;;6.83;;
7707;SDS011;3896;48.758;8.888;2024-03-02T02:11:02;10.77;;;6.17;;
7707;SDS011;3896;48.758;8.888;2024-03-02T02:13:28;11.40;;;6.40;;
7707;SDS011;3896;48.758;8.888;2024-03-02T02:15:53;9.83;;;6.10;;
7707;SDS011;3896;48.758;8.888;2024-03-02T02:18:19;11.37;;;6.50;;
7707;SDS011;3896;48.758;8.888;2024-03-02T02:20:44;7.77;;;5.70;;
7707;SDS011;3896;48.758;8.888;2024-03-02T02:23:10;11.03;;;7.30;;
7707;SDS011;3896;48.758;8.888;2024-03-02T02:25:35;10.90;;;6.50;;
7707;SDS011;3896;48.758;8.888;2024-03-02T02:28:01;11.90;;;7.80;;
7707;SDS011;3896;48.758;8.888;2024-03-02T02:30:30;10.53;;;7.13;;
7707;SDS011;3896;48.758;8.888;2024-03-02T02:32:57;11.47;;;7.37;;
7707;SDS011;3896;48.758;8.888;2024-03-02T02:35:23;13.43;;;8.17;;
7707;SDS011;3896;48.758;8.888;2024-03-02T02:37:49;11.43;;;7.73;;
7707;SDS011;3896;48.758;8.888;2024-03-02T02:40:16;10.27;;;7.63;;
7707;SDS011;3896;48.758;8.888;2024-03-02T02:42:43;11.67;;;7.37;;
7707;SDS011;3896;48.758;8.888;2024-03-02T02:58:06;12.13;;;8.23;;
7707;SDS011;3896;48.758;8.888;2024-03-02T03:00:32;12.33;;;7.50;;
7707;SDS011;3896;48.758;8.888;2024-03-02T03:02:57;11.73;;;7.93;;
7707;SDS011;3896;48.758;8.888;2024-03-02T03:05:23;10.17;;;7.17;;
7707;SDS011;3896;48.758;8.888;2024-03-02T03:07:48;11.77;;;7.50;;
7707;SDS011;3896;48.758;8.888;2024-03-02T03:10:15;11.37;;;6.90;;
7707;SDS011;3896;48.758;8.888;2024-03-02T03:12:41;10.60;;;6.87;;
7707;SDS011;3896;48.758;8.888;2024-03-02T03:15:08;12.10;;;7.67;;
7707;SDS011;3896;48.758;8.888;2024-03-02T03:17:34;10.77;;;6.97;;
7707;SDS011;3896;48.758;8.888;2024-03-02T03:20:00;11.47;;;7.10;;
7707;SDS011;3896;48.758;8.888;2024-03-02T03:22:27;9.53;;;6.70;;
7707;SDS011;3896;48.758;8.888;2024-03-02T03:24:53;10.77;;;7.33;;
7707;SDS011;3896;48.758;8.888;2024-03-02T03:27:18;11.27;;;7.57;;
7707;SDS011;3896;48.758;8.888;2024-03-02T03:29:47;9.20;;;6.93;;
7707;SDS011;3896;48.758;8.888;2024-03-02T03:32:12;10.70;;;7.63;;
7707;SDS011;3896;48.758;8.888;2024-03-02T03:34:38;10.20;;;7.03;;
7707;SDS011;3896;48.758;8.888;2024-03-02T03:37:04;12.43;;;7.80;;
7707;SDS011;3896;48.758;8.888;2024-03-02T03:39:29;12.40;;;6.70;;
7707;SDS011;3896;48.758;8.888;2024-03-02T03:41:55;12.50;;;7.20;;
7707;SDS011;3896;48.758;8.888;2024-03-02T03:44:20;9.30;;;6.63;;
7707;SDS011;3896;48.758;8.888;2024-03-02T03:46:46;10.97;;;6.90;;
7707;SDS011;3896;48.758;8.888;2024-03-02T03:49:11;11.87;;;7.33;;
7707;SDS011;3896;48.758;8.888;2024-03-02T03:51:37;14.50;;;8.23;;
7707;SDS011;3896;48.758;8.888;2024-03-02T03:54:02;11.47;;;7.10;;
7707;SDS011;3896;48.758;8.888;2024-03-02T03:56:28;11.60;;;6.70;;
7707;SDS011;3896;48.758;8.888;2024-03-02T03:58:53;8.67;;;6.47;;
7707;SDS011;3896;48.758;8.888;2024-03-02T04:01:19;11.50;;;7.77;;
7707;SDS011;3896;48.758;8.888;2024-03-02T04:03:44;10.50;;;6.13;;
7707;SDS011;3896;48.758;8.888;2024-03-02T04:06:10;11.77;;;8.07;;
7707;SDS011;3896;48.758;8.888;2024-03-02T04:08:36;11.80;;;7.40;;
7707;SDS011;3896;48.758;8.888;2024-03-02T04:11:01;13.90;;;8.43;;
7707;SDS011;3896;48.758;8.888;2024-03-02T04:13:27;13.37;;;7.97;;
7707;SDS011;3896;48.758;8.888;2024-03-02T04:15:53;14.20;;;8.27;;
7707;SDS011;3896;48.758;8.888;2024-03-02T04:18:18;12.50;;;7.87;;
7707;SDS011;3896;48.758;8.888;2024-03-02T04:20:44;13.10;;;7.97;;
7707;SDS011;3896;48.758;8.888;2024-03-02T04:23:09;15.90;;;7.80;;
7707;SDS011;3896;48.758;8.888;2024-03-02T04:25:35;11.07;;;6.90;;
7707;SDS011;3896;48.758;8.888;2024-03-02T04:28:01;13.63;;;7.73;;
7707;SDS011;3896;48.758;8.888;2024-03-02T04:30:26;12.47;;;7.80;;
7707;SDS011;3896;48.758;8.888;2024-03-02T04:32:52;11.53;;;7.13;;
7707;SDS011;3896;48.758;8.888;2024-03-02T04:35:17;9.77;;;7.00;;
7707;SDS011;3896;48.758;8.888;2024-03-02T04:37:43;9.13;;;6.00;;
7707;SDS011;3896;48.758;8.888;2024-03-02T04:40:08;11.90;;;6.87;;
7707;SDS011;3896;48.758;8.888;2024-03-02T04:42:35;13.07;;;8.00;;
7707;SDS011;3896;48.758;8.888;2024-03-02T04:45:01;11.83;;;7.27;;
7707;SDS011;3896;48.758;8.888;2024-03-02T04:47:26;13.13;;;7.50;;
7707;SDS011;3896;48.758;8.888;2024-03-02T04:49:52;13.63;;;7.90;;
7707;SDS011;3896;48.758;8.888;2024-03-02T04:52:18;13.37;;;7.67;;
7707;SDS011;3896;48.758;8.888;2024-03-02T04:54:44;14.67;;;8.23;;
7707;SDS011;3896;48.758;8.888;2024-03-02T04:57:28;12.50;;;8.20;;
7707;SDS011;3896;48.758;8.888;2024-03-02T04:59:53;11.23;;;7.10;;
7707;SDS011;3896;48.758;8.888;2024-03-02T05:02:19;10.63;;;6.80;;
7707;SDS011;3896;48.758;8.888;2024-03-02T05:04:44;12.57;;;7.10;;
7707;SDS011;3896;48.758;8.888;2024-03-02T05:07:10;13.43;;;7.50;;
7707;SDS011;3896;48.758;8.888;2024-03-02T05:09:35;16.43;;;8.83;;
7707;SDS011;3896;48.758;8.888;2024-03-02T05:12:01;17.20;;;8.97;;
7707;SDS011;3896;48.758;8.888;2024-03-02T05:14:29;10.87;;;6.73;;
7707;SDS011;3896;48.758;8.888;2024-03-02T05:16:55;13.77;;;7.20;;
7707;SDS011;3896;48.758;8.888;2024-03-02T05:19:20;13.60;;;6.93;;
7707;SDS011;3896;48.758;8.888;2024-03-02T05:21:46;13.53;;;7.43;;
7707;SDS011;3896;48.758;8.888;2024-03-02T05:24:11;12.20;;;7.57;;
7707;SDS011;3896;48.758;8.888;2024-03-02T05:26:37;14.17;;;8.00;;
7707;SDS011;3896;48.758;8.888;2024-03-02T05:29:02;11.27;;;6.87;;
7707;SDS011;3896;48.758;8.888;2024-03-02T05:31:28;13.03;;;8.33;;
7707;SDS011;3896;48.758;8.888;2024-03-02T05:33:53;14.27;;;8.37;;
7707;SDS011;3896;48.758;8.888;2024-03-02T05:36:19;10.83;;;7.13;;
7707;SDS011;3896;48.758;8.888;2024-03-02T05:38:45;14.27;;;7.97;;
7707;SDS011;3896;48.758;8.888;2024-03-02T05:41:11;13.07;;;7.07;;
7707;SDS011;3896;48.758;8.888;2024-03-02T05:43:37;13.27;;;8.53;;
7707;SDS011;3896;48.758;8.888;2024-03-02T05:46:02;12.97;;;7.67;;
7707;SDS011;3896;48.758;8.888;2024-03-02T05:48:28;13.43;;;7.67;;
7707;SDS011;3896;48.758;8.888;2024-03-02T05:50:54;13.87;;;7.87;;
7707;SDS011;3896;48.758;8.888;2024-03-02T05:53:19;12.97;;;7.40;;
7707;SDS011;3896;48.758;8.888;2024-03-02T05:55:45;11.67;;;6.67;;
7707;SDS011;3896;48.758;8.888;2024-03-02T05:58:10;11.30;;;7.27;;
7707;SDS011;3896;48.758;8.888;2024-03-02T06:01:02;12.07;;;7.50;;
7707;SDS011;3896;48.758;8.888;2024-03-02T06:03:28;12.83;;;7.53;;
7707;SDS011;3896;48.758;8.888;2024-03-02T06:05:54;14.43;;;8.47;;
7707;SDS011;3896;48.758;8.888;2024-03-02T06:08:20;11.50;;;7.43;;
7707;SDS011;3896;48.758;8.888;2024-03-02T06:10:45;12.27;;;6.87;;
7707;SDS011;3896;48.758;8.888;2024-03-02T06:13:11;14.13;;;8.53;;
7707;SDS011;3896;48.758;8.888;2024-03-02T06:15:36;14.50;;;8.40;;
7707;SDS011;3896;48.758;8.888;2024-03-02T06:18:02;17.45;;;10.52;;
7707;SDS011;3896;48.758;8.888;2024-03-02T06:20:28;15.20;;;9.93;;
7707;SDS011;3896;48.758;8.888;2024-03-02T06:22:56;13.93;;;8.83;;
7707;SDS011;3896;48.758;8.888;2024-03-02T06:25:21;14.60;;;7.90;;
7707;SDS011;3896;48.758;8.888;2024-03-02T06:27:47;17.00;;;8.63;;
7707;SDS011;3896;48.758;8.888;2024-03-02T06:30:12;15.57;;;8.13;;
7707;SDS011;3896;48.758;8.888;2024-03-02T06:32:38;12.10;;;8.50;;
7707;SDS011;3896;48.758;8.888;2024-03-02T06:35:04;12.87;;;8.00;;
7707;SDS011;3896;48.758;8.888;2024-03-02T06:37:31;10.90;;;7.07;;
7707;SDS011;3896;48.758;8.888;2024-03-02T06:39:57;11.77;;;7.73;;
7707;SDS011;3896;48.758;8.888;2024-03-02T06:42:22;11.77;;;6.60;;
7707;SDS011;3896;48.758;8.888;2024-03-02T06:44:49;11.60;;;7.33;;
7707;SDS011;3896;48.758;8.888;2024-03-02T06:47:15;12.00;;;7.20;;
7707;SDS011;3896;48.758;8.888;2024-03-02T06:49:41;12.40;;;7.40;;
7707;SDS011;3896;48.758;8.888;2024-03-02T06:52:07;14.27;;;7.07;;
7707;SDS011;3896;48.758;8.888;2024-03-02T06:54:32;15.93;;;7.57;;
7707;SDS011;3896;48.758;8.888;2024-03-02T06:56:59;12.80;;;7.37;;
7707;SDS011;3896;48.758;8.888;2024-03-02T06:59:25;14.50;;;7.73;;
7707;SDS011;3896;48.758;8.888;2024-03-02T07:01:50;15.40;;;8.13;;
7707;SDS011;3896;48.758;8.888;2024-03-02T07:04:16;15.97;;;8.43;;
7707;SDS011;3896;48.758;8.888;2024-03-02T07:06:41;14.20;;;8.80;;
7707;SDS011;3896;48.758;8.888;2024-03-02T07:09:07;14.57;;;7.63;;
7707;SDS011;3896;48.758;8.888;2024-03-02T07:11:35;20.30;;;10.33;;
7707;SDS011;3896;48.758;8.888;2024-03-02T07:14:01;15.90;;;9.20;;
7707;SDS011;3896;48.758;8.888;2024-03-02T07:16:27;17.00;;;8.93;;
7707;SDS011;3896;48.758;8.888;2024-03-02T07:18:58;15.30;;;8.30;;
7707;SDS011;3896;48.758;8.888;2024-03-02T07:21:24;16.67;;;9.33;;
7707;SDS011;3896;48.758;8.888;2024-03-02T07:23:50;17.00;;;9.10;;
7707;SDS011;3896;48.758;8.888;2024-03-02T07:26:16;19.73;;;10.27;;
7707;SDS011;3896;48.758;8.888;2024-03-02T07:28:43;19.00;;;10.60;;
7707;SDS011;3896;48.758;8.888;2024-03-02T07:31:10;16.30;;;9.77;;
7707;SDS011;3896;48.758;8.888;2024-03-02T07:33:36;15.40;;;9.23;;
7707;SDS011;3896;48.758;8.888;2024-03-02T07:36:01;14.53;;;9.60;;
7707;SDS011;3896;48.758;8.888;2024-03-02T07:38:30;16.87;;;9.57;;
7707;SDS011;3896;48.758;8.888;2024-03-02T07:40:57;14.13;;;8.47;;
7707;SDS011;3896;48.758;8.888;2024-03-02T07:43:23;15.13;;;9.50;;
7707;SDS011;3896;48.758;8.888;2024-03-02T07:45:48;12.40;;;7.57;;
7707;SDS011;3896;48.758;8.888;2024-03-02T07:48:14;15.43;;;8.33;;
7707;SDS011;3896;48.758;8.888;2024-03-02T07:50:40;14.03;;;8.50;;
7707;SDS011;3896;48.758;8.888;2024-03-02T07:53:05;20.27;;;10.33;;
7707;SDS011;3896;48.758;8.888;2024-03-02T07:55:32;17.13;;;10.43;;
7707;SDS011;3896;48.758;8.888;2024-03-02T07:57:58;18.70;;;9.60;;
7707;SDS011;3896;48.758;8.888;2024-03-02T08:00:24;19.07;;;10.40;;
7707;SDS011;3896;48.758;8.888;2024-03-02T08:02:50;20.67;;;12.03;;
7707;SDS011;3896;48.758;8.888;2024-03-02T08:05:17;19.80;;;10.80;;
7707;SDS011;3896;48.758;8.888;2024-03-02T08:07:44;20.63;;;11.70;;
7707;SDS011;3896;48.758;8.888;2024-03-02T08:10:10;19.77;;;10.90;;
7707;SDS011;3896;48.758;8.888;2024-03-02T08:12:36;21.77;;;10.83;;
7707;SDS011;3896;48.758;8.888;2024-03-02T08:15:01;19.63;;;11.40;;
7707;SDS011;3896;48.758;8.888;2024-03-02T08:17:27;23.27;;;11.57;;
7707;SDS011;3896;48.758;8.888;2024-03-02T08:19:53;19.23;;;11.13;;
7707;SDS011;3896;48.758;8.888;2024-03-02T08:22:19;16.20;;;10.13;;
7707;SDS011;3896;48.758;8.888;2024-03-02T08:24:44;18.10;;;10.73;;
7707;SDS011;3896;48.758;8.888;2024-03-02T08:27:10;18.17;;;9.60;;
7707;SDS011;3896;48.758;8.888;2024-03-02T08:29:37;16.90;;;10.77;;
7707;SDS011;3896;48.758;8.888;2024-03-02T08:32:02;16.83;;;9.70;;
7707;SDS011;3896;48.758;8.888;2024-03-02T08:34:28;15.43;;;9.30;;
7707;SDS011;3896;48.758;8.888;2024-03-02T08:36:53;18.10;;;9.47;;
7707;SDS011;3896;48.758;8.888;2024-03-02T08:39:19;16.23;;;10.13;;
7707;SDS011;3896;48.758;8.888;2024-03-02T08:41:46;17.20;;;10.50;;
7707;SDS011;3896;48.758;8.888;2024-03-02T08:44:12;15.67;;;9.90;;
7707;SDS011;3896;48.758;8.888;2024-03-02T08:46:39;16.13;;;9.73;;
7707;SDS011;3896;48.758;8.888;2024-03-02T08:49:05;14.90;;;9.03;;
7707;SDS011;3896;48.758;8.888;2024-03-02T08:51:31;12.40;;;7.87;;
7707;SDS011;3896;48.758;8.888;2024-03-02T08:53:56;11.87;;;8.23;;
7707;SDS011;3896;48.758;8.888;2024-03-02T08:56:23;11.90;;;7.87;;
7707;SDS011;3896;48.758;8.888;2024-03-02T08:58:51;13.20;;;7.50;;
7707;SDS011;3896;48.758;8.888;2024-03-02T09:01:17;14.10;;;9.23;;
7707;SDS011;3896;48.758;8.888;2024-03-02T09:03:44;11.40;;;7.27;;
7707;SDS011;3896;48.758;8.888;2024-03-02T09:06:11;11.97;;;7.50;;
7707;SDS011;3896;48.758;8.888;2024-03-02T09:08:37;10.97;;;7.03;;
7707;SDS011;3896;48.758;8.888;2024-03-02T09:11:04;9.50;;;6.90;;
7707;SDS011;3896;48.758;8.888;2024-03-02T09:13:30;9.70;;;6.20;;
7707;SDS011;3896;48.758;8.888;2024-03-02T09:15:56;12.67;;;6.30;;
7707;SDS011;3896;48.758;8.888;2024-03-02T09:18:22;9.97;;;6.03;;
7707;SDS011;3896;48.758;8.888;2024-03-02T09:20:47;12.23;;;6.03;;
7707;SDS011;3896;48.758;8.888;2024-03-02T09:23:13;9.13;;;6.60;;
7707;SDS011;3896;48.758;8.888;2024-03-02T09:25:38;8.40;;;5.90;;
7707;SDS011;3896;48.758;8.888;2024-03-02T09:28:04;8.33;;;5.80;;
7707;SDS011;3896;48.758;8.888;2024-03-02T09:30:30;9.03;;;5.23;;
7707;SDS011;3896;48.758;8.888;2024-03-02T09:32:55;6.33;;;4.43;;
7707;SDS011;3896;48.758;8.888;2024-03-02T09:35:21;7.10;;;4.93;;
7707;SDS011;3896;48.758;8.888;2024-03-02T09:37:46;7.43;;;4.90;;
7707;SDS011;3896;48.758;8.888;2024-03-02T09:40:12;6.37;;;4.77;;
7707;SDS011;3896;48.758;8.888;2024-03-02T09:42:39;7.90;;;5.10;;
7707;SDS011;3896;48.758;8.888;2024-03-02T09:45:06;7.07;;;5.40;;
7707;SDS011;3896;48.758;8.888;2024-03-02T09:47:33;6.70;;;4.77;;
7707;SDS011;3896;48.758;8.888;2024-03-02T09:49:59;6.43;;;3.90;;
7707;SDS011;3896;48.758;8.888;2024-03-02T09:52:25;4.17;;;3.77;;
7707;SDS011;3896;48.758;8.888;2024-03-02T09:54:51;6.00;;;3.47;;
7707;SDS011;3896;48.758;8.888;2024-03-02T09:57:16;6.03;;;3.90;;
7707;SDS011;3896;48.758;8.888;2024-03-02T09:59:42;5.83;;;3.37;;
7707;SDS011;3896;48.758;8.888;2024-03-02T10:02:07;4.80;;;3.30;;
7707;SDS011;3896;48.758;8.888;2024-03-02T10:04:33;4.70;;;3.97;;
7707;SDS011;3896;48.758;8.888;2024-03-02T10:07:16;3.87;;;3.00;;
7707;SDS011;3896;48.758;8.888;2024-03-02T10:09:44;4.43;;;3.03;;
7707;SDS011;3896;48.758;8.888;2024-03-02T10:12:14;3.33;;;2.47;;
7707;SDS011;3896;48.758;8.888;2024-03-02T10:14:41;4.10;;;3.00;;
7707;SDS011;3896;48.758;8.888;2024-03-02T10:17:08;3.40;;;2.50;;
7707;SDS011;3896;48.758;8.888;2024-03-02T10:19:35;4.50;;;3.13;;
7707;SDS011;3896;48.758;8.888;2024-03-02T10:22:02;4.00;;;2.77;;
7707;SDS011;3896;48.758;8.888;2024-03-02T10:24:36;3.67;;;2.80;;
7707;SDS011;3896;48.758;8.888;2024-03-02T10:27:06;2.87;;;2.67;;
7707;SDS011;3896;48.758;8.888;2024-03-02T10:29:39;2.40;;;2.20;;
7707;SDS011;3896;48.758;8.888;2024-03-02T10:32:06;2.50;;;2.30;;
7707;SDS011;3896;48.758;8.888;2024-03-02T10:34:34;2.60;;;2.40;;
7707;SDS011;3896;48.758;8.888;2024-03-02T10:37:00;2.47;;;2.27;;
7707;SDS011;3896;48.758;8.888;2024-03-02T10:39:26;3.30;;;2.10;;
7707;SDS011;3896;48.758;8.888;2024-03-02T10:41:52;3.60;;;2.53;;
7707;SDS011;3896;48.758;8.888;2024-03-02T10:44:20;2.53;;;2.00;;
7707;SDS011;3896;48.758;8.888;2024-03-02T10:46:48;2.37;;;2.20;;
7707;SDS011;3896;48.758;8.888;2024-03-02T10:49:15;2.33;;;1.97;;
7707;SDS011;3896;48.758;8.888;2024-03-02T10:51:42;2.30;;;1.77;;
7707;SDS011;3896;48.758;8.888;2024-03-02T10:54:08;2.20;;;2.00;;
7707;SDS011;3896;48.758;8.888;2024-03-02T10:56:37;2.43;;;2.23;;
7707;SDS011;3896;48.758;8.888;2024-03-02T11:01:53;1.80;;;1.70;;
7707;SDS011;3896;48.758;8.888;2024-03-02T11:04:21;2.00;;;1.80;;
7707;SDS011;3896;48.758;8.888;2024-03-02T11:06:49;1.87;;;1.60;;
7707;SDS011;3896;48.758;8.888;2024-03-02T11:09:16;2.17;;;1.40;;
7707;SDS011;3896;48.758;8.888;2024-03-02T11:11:45;2.10;;;1.90;;
7707;SDS011;3896;48.758;8.888;2024-03-02T11:14:17;3.47;;;1.60;;
7707;SDS011;3896;48.758;8.888;2024-03-02T11:16:48;1.13;;;1.07;;
7707;SDS011;3896;48.758;8.888;2024-03-02T11:19:15;1.27;;;1.10;;
7707;SDS011;3896;48.758;8.888;2024-03-02T11:21:41;1.47;;;1.37;;
7707;SDS011;3896;48.758;8.888;2024-03-02T11:24:28;0.70;;;0.70;;
7707;SDS011;3896;48.758;8.888;2024-03-02T11:26:57;0.53;;;0.53;;
7707;SDS011;3896;48.758;8.888;2024-03-02T11:32:14;0.50;;;0.50;;
7707;SDS011;3896;48.758;8.888;2024-03-02T11:34:49;0.57;;;0.57;;
7707;SDS011;3896;48.758;8.888;2024-03-02T11:37:15;0.80;;;0.80;;
7707;SDS011;3896;48.758;8.888;2024-03-02T11:39:43;0.83;;;0.83;;
7707;SDS011;3896;48.758;8.888;2024-03-02T11:42:10;1.03;;;0.93;;
7707;SDS011;3896;48.758;8.888;2024-03-02T11:44:39;0.70;;;0.70;;
7707;SDS011;3896;48.758;8.888;2024-03-02T11:47:06;0.60;;;0.60;;
7707;SDS011;3896;48.758;8.888;2024-03-02T11:49:40;0.77;;;0.77;;
7707;SDS011;3896;48.758;8.888;2024-03-02T11:52:11;0.97;;;0.97;;
7707;SDS011;3896;48.758;8.888;2024-03-02T11:54:38;1.53;;;0.90;;
7707;SDS011;3896;48.758;8.888;2024-03-02T11:57:06;1.13;;;0.90;;
7707;SDS011;3896;48.758;8.888;2024-03-02T11:59:32;0.90;;;0.90;;
7707;SDS011;3896;48.758;8.888;2024-03-02T12:01:58;0.80;;;0.80;;
7707;SDS011;3896;48.758;8.888;2024-03-02T12:04:25;0.90;;;0.90;;
7707;SDS011;3896;48.758;8.888;2024-03-02T12:06:58;0.90;;;0.90;;
7707;SDS011;3896;48.758;8.888;2024-03-02T12:09:25;1.10;;;0.60;;
7707;SDS011;3896;48.758;8.888;2024-03-02T12:12:06;0.40;;;0.40;;
7707;SDS011;3896;48.758;8.888;2024-03-02T12:14:33;0.77;;;0.77;;
7707;SDS011;3896;48.758;8.888;2024-03-02T12:17:01;0.60;;;0.50;;
7707;SDS011;3896;48.758;8.888;2024-03-02T12:19:27;0.60;;;0.60;;
7707;SDS011;3896;48.758;8.888;2024-03-02T12:21:55;0.60;;;0.60;;
7707;SDS011;3896;48.758;8.888;2024-03-02T12:24:21;0.70;;;0.70;;
7707;SDS011;3896;48.758;8.888;2024-03-02T12:26:48;0.40;;;0.40;;
7707;SDS011;3896;48.758;8.888;2024-03-02T12:29:14;0.97;;;0.60;;
7707;SDS011;3896;48.758;8.888;2024-03-02T12:31:40;0.40;;;0.40;;
7707;SDS011;3896;48.758;8.888;2024-03-02T12:34:07;0.53;;;0.33;;
7707;SDS011;3896;48.758;8.888;2024-03-02T12:36:39;0.40;;;0.40;;
7707;SDS011;3896;48.758;8.888;2024-03-02T12:39:06;0.30;;;0.30;;
7707;SDS011;3896;48.758;8.888;2024-03-02T12:41:38;0.40;;;0.40;;
7707;SDS011;3896;48.758;8.888;2024-03-02T12:44:04;0.67;;;0.60;;
7707;SDS011;3896;48.758;8.888;2024-03-02T12:46:34;0.47;;;0.47;;
7707;SDS011;3896;48.758;8.888;2024-03-02T12:49:11;0.47;;;0.47;;
7707;SDS011;3896;48.758;8.888;2024-03-02T12:51:37;0.40;;;0.40;;
7707;SDS011;3896;48.758;8.888;2024-03-02T12:54:08;0.57;;;0.50;;
7707;SDS011;3896;48.758;8.888;2024-03-02T12:56:35;0.63;;;0.60;;
7707;SDS011;3896;48.758;8.888;2024-03-02T12:59:01;0.50;;;0.50;;
7707;SDS011;3896;48.758;8.888;2024-03-02T13:01:26;0.63;;;0.50;;
7707;SDS011;3896;48.758;8.888;2024-03-02T13:03:52;0.40;;;0.40;;
7707;SDS011;3896;48.758;8.888;2024-03-02T13:06:20;1.10;;;0.50;;
7707;SDS011;3896;48.758;8.888;2024-03-02T13:08:46;0.63;;;0.63;;
7707;SDS011;3896;48.758;8.888;2024-03-02T13:11:12;1.40;;;0.60;;
7707;SDS011;3896;48.758;8.888;2024-03-02T13:13:38;0.60;;;0.60;;
7707;SDS011;3896;48.758;8.888;2024-03-02T13:16:08;0.83;;;0.77;;
7707;SDS011;3896;48.758;8.888;2024-03-02T13:18:38;0.60;;;0.60;;
7707;SDS011;3896;48.758;8.888;2024-03-02T13:21:05;0.50;;;0.50;;
7707;SDS011;3896;48.758;8.888;2024-03-02T13:23:30;0.60;;;0.60;;
7707;SDS011;3896;48.758;8.888;2024-03-02T13:25:56;0.80;;;0.80;;
7707;SDS011;3896;48.758;8.888;2024-03-02T13:28:23;0.80;;;0.70;;
7707;SDS011;3896;48.758;8.888;2024-03-02T13:30:52;0.90;;;0.90;;
7707;SDS011;3896;48.758;8.888;2024-03-02T13:33:17;1.00;;;0.90;;
7707;SDS011;3896;48.758;8.888;2024-03-02T13:35:49;1.47;;;0.73;;
7707;SDS011;3896;48.758;8.888;2024-03-02T13:38:19;0.70;;;0.70;;
7707;SDS011;3896;48.758;8.888;2024-03-02T13:40:45;0.70;;;0.60;;
7707;SDS011;3896;48.758;8.888;2024-03-02T13:43:11;0.70;;;0.70;;
7707;SDS011;3896;48.758;8.888;2024-03-02T13:45:37;1.07;;;0.80;;
7707;SDS011;3896;48.758;8.888;2024-03-02T13:48:04;0.93;;;0.80;;
7707;SDS011;3896;48.758;8.888;2024-03-02T13:50:30;0.63;;;0.63;;
7707;SDS011;3896;48.758;8.888;2024-03-02T13:52:55;0.90;;;0.70;;
7707;SDS011;3896;48.758;8.888;2024-03-02T13:55:21;0.73;;;0.73;;
7707;SDS011;3896;48.758;8.888;2024-03-02T13:57:47;1.13;;;1.13;;
7707;SDS011;3896;48.758;8.888;2024-03-02T14:00:15;0.80;;;0.80;;
7707;SDS011;3896;48.758;8.888;2024-03-02T14:02:41;2.13;;;0.90;;
7707;SDS011;3896;48.758;8.888;2024-03-02T14:05:06;0.80;;;0.80;;
7707;SDS011;3896;48.758;8.888;2024-03-02T14:07:36;0.80;;;0.80;;
7707;SDS011;3896;48.758;8.888;2024-03-02T14:10:03;0.70;;;0.70;;
7707;SDS011;3896;48.758;8.888;2024-03-02T14:12:29;1.00;;;0.90;;
7707;SDS011;3896;48.758;8.888;2024-03-02T14:14:54;1.00;;;0.90;;
7707;SDS011;3896;48.758;8.888;2024-03-02T14:17:23;0.97;;;0.90;;
7707;SDS011;3896;48.758;8.888;2024-03-02T14:19:49;2.33;;;1.23;;
7707;SDS011;3896;48.758;8.888;2024-03-02T14:22:15;1.30;;;1.20;;
7707;SDS011;3896;48.758;8.888;2024-03-02T14:24:42;1.00;;;1.00;;
7707;SDS011;3896;48.758;8.888;2024-03-02T14:27:08;1.27;;;1.17;;
7707;SDS011;3896;48.758;8.888;2024-03-02T14:29:34;1.10;;;1.00;;
7707;SDS011;3896;48.758;8.888;2024-03-02T14:32:02;0.97;;;0.90;;
7707;SDS011;3896;48.758;8.888;2024-03-02T14:34:28;1.10;;;0.90;;
7707;SDS011;3896;48.758;8.888;2024-03-02T14:36:54;0.87;;;0.87;;
7707;SDS011;3896;48.758;8.888;2024-03-02T14:39:20;0.70;;;0.70;;
7707;SDS011;3896;48.758;8.888;2024-03-02T14:41:46;0.97;;;0.87;;
7707;SDS011;3896;48.758;8.888;2024-03-02T14:44:11;0.70;;;0.70;;
7707;SDS011;3896;48.758;8.888;2024-03-02T14:46:37;0.77;;;0.77;;
7707;SDS011;3896;48.758;8.888;2024-03-02T14:49:03;1.40;;;0.90;;
7707;SDS011;3896;48.758;8.888;2024-03-02T14:51:29;0.70;;;0.70;;
7707;SDS011;3896;48.758;8.888;2024-03-02T14:53:55;0.60;;;0.60;;
7707;SDS011;3896;48.758;8.888;2024-03-02T14:56:20;0.60;;;0.60;;
7707;SDS011;3896;48.758;8.888;2024-03-02T14:58:46;0.60;;;0.60;;
7707;SDS011;3896;48.758;8.888;2024-03-02T15:01:12;0.90;;;0.90;;
7707;SDS011;3896;48.758;8.888;2024-03-02T15:03:38;1.60;;;0.83;;
7707;SDS011;3896;48.758;8.888;2024-03-02T15:06:03;0.80;;;0.70;;
7707;SDS011;3896;48.758;8.888;2024-03-02T15:08:30;0.70;;;0.70;;
7707;SDS011;3896;48.758;8.888;2024-03-02T15:10:55;1.60;;;0.70;;
7707;SDS011;3896;48.758;8.888;2024-03-02T15:13:22;0.70;;;0.70;;
7707;SDS011;3896;48.758;8.888;2024-03-02T15:15:49;1.43;;;0.70;;
7707;SDS011;3896;48.758;8.888;2024-03-02T15:18:15;0.93;;;0.70;;
7707;SDS011;3896;48.758;8.888;2024-03-02T15:20:41;0.60;;;0.60;;
7707;SDS011;3896;48.758;8.888;2024-03-02T15:23:06;0.70;;;0.70;;